<?xml version="1.0" encoding="UTF-8" standalone="no" ?>
<gpx xmlns="http://www.topografix.com/GPX/1/1" xmlns:xsi="http://www.w3.org/2001/XMLSchema-instance" xsi:schemaLocation="http://www.topografix.com/GPX/1/1 http://www.topografix.com/GPX/1/1/gpx.xsd" version="1.1" creator="VisuGPX - https://www.visugpx.com">
  <metadata>
    <name>Chandeleur 2024 11km</name>
  </metadata>
  <trk>
    <name><![CDATA[rando chandeleur-15991762]]></name>
    <trkseg>
      <trkpt lat="47.80333" lon="1.03477">
        <ele>82</ele>
        <time>2024-01-16T15:27:51Z</time>
      </trkpt>
      <trkpt lat="47.80325" lon="1.03341">
        <ele>84</ele>
        <time>2024-01-16T15:29:53Z</time>
      </trkpt>
      <trkpt lat="47.80321" lon="1.03295">
        <ele>85</ele>
        <time>2024-01-16T15:30:35Z</time>
      </trkpt>
      <trkpt lat="47.8031" lon="1.03251">
        <ele>86</ele>
        <time>2024-01-16T15:31:17Z</time>
      </trkpt>
      <trkpt lat="47.80301" lon="1.03232">
        <ele>86</ele>
        <time>2024-01-16T15:31:38Z</time>
      </trkpt>
      <trkpt lat="47.80238" lon="1.03126">
        <ele>82</ele>
        <time>2024-01-16T15:33:45Z</time>
      </trkpt>
      <trkpt lat="47.80151" lon="1.02977">
        <ele>83</ele>
        <time>2024-01-16T15:36:42Z</time>
      </trkpt>
      <trkpt lat="47.80104" lon="1.02895">
        <ele>85</ele>
        <time>2024-01-16T15:38:18Z</time>
      </trkpt>
      <trkpt lat="47.80084" lon="1.02867">
        <ele>85</ele>
        <time>2024-01-16T15:38:55Z</time>
      </trkpt>
      <trkpt lat="47.8007" lon="1.02855">
        <ele>85</ele>
        <time>2024-01-16T15:39:17Z</time>
      </trkpt>
      <trkpt lat="47.80064" lon="1.02854">
        <ele>85</ele>
        <time>2024-01-16T15:39:25Z</time>
      </trkpt>
      <trkpt lat="47.80056" lon="1.0283">
        <ele>86</ele>
        <time>2024-01-16T15:39:49Z</time>
      </trkpt>
      <trkpt lat="47.79994" lon="1.02737">
        <ele>84</ele>
        <time>2024-01-16T15:41:46Z</time>
      </trkpt>
      <trkpt lat="47.79986" lon="1.02732">
        <ele>85</ele>
        <time>2024-01-16T15:41:58Z</time>
      </trkpt>
      <trkpt lat="47.79988" lon="1.02732">
        <ele>85</ele>
        <time>2024-01-16T15:42:00Z</time>
      </trkpt>
      <trkpt lat="47.79982" lon="1.02677">
        <ele>91</ele>
        <time>2024-01-16T15:42:50Z</time>
      </trkpt>
      <trkpt lat="47.79974" lon="1.02634">
        <ele>95</ele>
        <time>2024-01-16T15:43:30Z</time>
      </trkpt>
      <trkpt lat="47.79974" lon="1.02622">
        <ele>96</ele>
        <time>2024-01-16T15:43:41Z</time>
      </trkpt>
      <trkpt lat="47.79974" lon="1.02622">
        <ele>96</ele>
        <time>2024-01-16T15:43:41Z</time>
      </trkpt>
      <trkpt lat="47.79974" lon="1.02622">
        <ele>96</ele>
        <time>2024-01-16T15:43:41Z</time>
      </trkpt>
      <trkpt lat="47.7997" lon="1.02597">
        <ele>99</ele>
        <time>2024-01-16T15:44:04Z</time>
      </trkpt>
      <trkpt lat="47.79969" lon="1.02583">
        <ele>100</ele>
        <time>2024-01-16T15:44:17Z</time>
      </trkpt>
      <trkpt lat="47.79958" lon="1.02518">
        <ele>104</ele>
        <time>2024-01-16T15:45:17Z</time>
      </trkpt>
      <trkpt lat="47.79955" lon="1.02483">
        <ele>106</ele>
        <time>2024-01-16T15:45:48Z</time>
      </trkpt>
      <trkpt lat="47.79958" lon="1.0246">
        <ele>108</ele>
        <time>2024-01-16T15:46:09Z</time>
      </trkpt>
      <trkpt lat="47.79973" lon="1.02422">
        <ele>113</ele>
        <time>2024-01-16T15:46:49Z</time>
      </trkpt>
      <trkpt lat="47.79973" lon="1.02421">
        <ele>113</ele>
        <time>2024-01-16T15:46:50Z</time>
      </trkpt>
      <trkpt lat="47.79973" lon="1.02422">
        <ele>113</ele>
        <time>2024-01-16T15:46:51Z</time>
      </trkpt>
      <trkpt lat="47.79962" lon="1.02406">
        <ele>112</ele>
        <time>2024-01-16T15:47:11Z</time>
      </trkpt>
      <trkpt lat="47.79938" lon="1.02342">
        <ele>114</ele>
        <time>2024-01-16T15:48:17Z</time>
      </trkpt>
      <trkpt lat="47.79937" lon="1.02342">
        <ele>114</ele>
        <time>2024-01-16T15:48:18Z</time>
      </trkpt>
      <trkpt lat="47.79938" lon="1.02342">
        <ele>114</ele>
        <time>2024-01-16T15:48:20Z</time>
      </trkpt>
      <trkpt lat="47.79969" lon="1.02284">
        <ele>120</ele>
        <time>2024-01-16T15:49:26Z</time>
      </trkpt>
      <trkpt lat="47.79969" lon="1.02283">
        <ele>120</ele>
        <time>2024-01-16T15:49:27Z</time>
      </trkpt>
      <trkpt lat="47.79961" lon="1.02275">
        <ele>121</ele>
        <time>2024-01-16T15:49:40Z</time>
      </trkpt>
      <trkpt lat="47.79948" lon="1.02244">
        <ele>122</ele>
        <time>2024-01-16T15:50:13Z</time>
      </trkpt>
      <trkpt lat="47.79947" lon="1.02236">
        <ele>122</ele>
        <time>2024-01-16T15:50:20Z</time>
      </trkpt>
      <trkpt lat="47.79947" lon="1.0223">
        <ele>122</ele>
        <time>2024-01-16T15:50:25Z</time>
      </trkpt>
      <trkpt lat="47.79949" lon="1.02223">
        <ele>123</ele>
        <time>2024-01-16T15:50:32Z</time>
      </trkpt>
      <trkpt lat="47.79949" lon="1.02223">
        <ele>123</ele>
        <time>2024-01-16T15:50:32Z</time>
      </trkpt>
      <trkpt lat="47.79945" lon="1.02211">
        <ele>123</ele>
        <time>2024-01-16T15:50:44Z</time>
      </trkpt>
      <trkpt lat="47.79882" lon="1.02092">
        <ele>121</ele>
        <time>2024-01-16T15:53:00Z</time>
      </trkpt>
      <trkpt lat="47.79824" lon="1.0198">
        <ele>118</ele>
        <time>2024-01-16T15:55:07Z</time>
      </trkpt>
      <trkpt lat="47.79824" lon="1.0198">
        <ele>118</ele>
        <time>2024-01-16T15:55:07Z</time>
      </trkpt>
      <trkpt lat="47.79852" lon="1.01956">
        <ele>120</ele>
        <time>2024-01-16T15:55:50Z</time>
      </trkpt>
      <trkpt lat="47.79852" lon="1.01956">
        <ele>120</ele>
        <time>2024-01-16T15:55:50Z</time>
      </trkpt>
      <trkpt lat="47.798" lon="1.01762">
        <ele>113</ele>
        <time>2024-01-16T15:58:57Z</time>
      </trkpt>
      <trkpt lat="47.79769" lon="1.01643">
        <ele>108</ele>
        <time>2024-01-16T16:00:51Z</time>
      </trkpt>
      <trkpt lat="47.79769" lon="1.01643">
        <ele>108</ele>
        <time>2024-01-16T16:00:51Z</time>
      </trkpt>
      <trkpt lat="47.79686" lon="1.01637">
        <ele>102</ele>
        <time>2024-01-16T16:02:42Z</time>
      </trkpt>
      <trkpt lat="47.79619" lon="1.01632">
        <ele>99</ele>
        <time>2024-01-16T16:04:12Z</time>
      </trkpt>
      <trkpt lat="47.79616" lon="1.01632">
        <ele>99</ele>
        <time>2024-01-16T16:04:16Z</time>
      </trkpt>
      <trkpt lat="47.7963" lon="1.01583">
        <ele>99</ele>
        <time>2024-01-16T16:05:04Z</time>
      </trkpt>
      <trkpt lat="47.79638" lon="1.0154">
        <ele>100</ele>
        <time>2024-01-16T16:05:44Z</time>
      </trkpt>
      <trkpt lat="47.7964" lon="1.01537">
        <ele>100</ele>
        <time>2024-01-16T16:05:47Z</time>
      </trkpt>
      <trkpt lat="47.79662" lon="1.0149">
        <ele>100</ele>
        <time>2024-01-16T16:06:39Z</time>
      </trkpt>
      <trkpt lat="47.79674" lon="1.01471">
        <ele>100</ele>
        <time>2024-01-16T16:07:02Z</time>
      </trkpt>
      <trkpt lat="47.7967" lon="1.01461">
        <ele>99</ele>
        <time>2024-01-16T16:07:13Z</time>
      </trkpt>
      <trkpt lat="47.79671" lon="1.01462">
        <ele>99</ele>
        <time>2024-01-16T16:07:14Z</time>
      </trkpt>
      <trkpt lat="47.79702" lon="1.01417">
        <ele>98</ele>
        <time>2024-01-16T16:08:12Z</time>
      </trkpt>
      <trkpt lat="47.79738" lon="1.01384">
        <ele>99</ele>
        <time>2024-01-16T16:09:08Z</time>
      </trkpt>
      <trkpt lat="47.79785" lon="1.01292">
        <ele>102</ele>
        <time>2024-01-16T16:10:52Z</time>
      </trkpt>
      <trkpt lat="47.79877" lon="1.0132">
        <ele>109</ele>
        <time>2024-01-16T16:12:57Z</time>
      </trkpt>
      <trkpt lat="47.79973" lon="1.01318">
        <ele>116</ele>
        <time>2024-01-16T16:15:05Z</time>
      </trkpt>
      <trkpt lat="47.79967" lon="1.0142">
        <ele>111</ele>
        <time>2024-01-16T16:16:37Z</time>
      </trkpt>
      <trkpt lat="47.8005" lon="1.01441">
        <ele>114</ele>
        <time>2024-01-16T16:18:30Z</time>
      </trkpt>
      <trkpt lat="47.80135" lon="1.01457">
        <ele>114</ele>
        <time>2024-01-16T16:20:24Z</time>
      </trkpt>
      <trkpt lat="47.80214" lon="1.0147">
        <ele>115</ele>
        <time>2024-01-16T16:22:10Z</time>
      </trkpt>
      <trkpt lat="47.80281" lon="1.015">
        <ele>116</ele>
        <time>2024-01-16T16:23:43Z</time>
      </trkpt>
      <trkpt lat="47.80372" lon="1.01466">
        <ele>122</ele>
        <time>2024-01-16T16:25:49Z</time>
      </trkpt>
      <trkpt lat="47.80456" lon="1.0144">
        <ele>127</ele>
        <time>2024-01-16T16:27:43Z</time>
      </trkpt>
      <trkpt lat="47.80508" lon="1.01427">
        <ele>129</ele>
        <time>2024-01-16T16:28:53Z</time>
      </trkpt>
      <trkpt lat="47.80553" lon="1.01443">
        <ele>129</ele>
        <time>2024-01-16T16:29:55Z</time>
      </trkpt>
      <trkpt lat="47.80587" lon="1.01485">
        <ele>129</ele>
        <time>2024-01-16T16:30:54Z</time>
      </trkpt>
      <trkpt lat="47.80637" lon="1.01575">
        <ele>128</ele>
        <time>2024-01-16T16:32:39Z</time>
      </trkpt>
      <trkpt lat="47.80714" lon="1.01528">
        <ele>131</ele>
        <time>2024-01-16T16:34:30Z</time>
      </trkpt>
      <trkpt lat="47.80792" lon="1.01581">
        <ele>132</ele>
        <time>2024-01-16T16:36:24Z</time>
      </trkpt>
      <trkpt lat="47.80824" lon="1.01611">
        <ele>133</ele>
        <time>2024-01-16T16:37:15Z</time>
      </trkpt>
      <trkpt lat="47.80849" lon="1.01683">
        <ele>133</ele>
        <time>2024-01-16T16:38:27Z</time>
      </trkpt>
      <trkpt lat="47.80902" lon="1.01565">
        <ele>135</ele>
        <time>2024-01-16T16:40:35Z</time>
      </trkpt>
      <trkpt lat="47.80916" lon="1.01378">
        <ele>137</ele>
        <time>2024-01-16T16:43:23Z</time>
      </trkpt>
      <trkpt lat="47.80931" lon="1.01243">
        <ele>136</ele>
        <time>2024-01-16T16:45:26Z</time>
      </trkpt>
      <trkpt lat="47.80949" lon="1.01168">
        <ele>135</ele>
        <time>2024-01-16T16:46:37Z</time>
      </trkpt>
      <trkpt lat="47.8087" lon="1.01167">
        <ele>136</ele>
        <time>2024-01-16T16:48:23Z</time>
      </trkpt>
      <trkpt lat="47.80793" lon="1.01153">
        <ele>135</ele>
        <time>2024-01-16T16:50:06Z</time>
      </trkpt>
      <trkpt lat="47.80722" lon="1.01162">
        <ele>135</ele>
        <time>2024-01-16T16:51:41Z</time>
      </trkpt>
      <trkpt lat="47.80646" lon="1.01146">
        <ele>134</ele>
        <time>2024-01-16T16:53:24Z</time>
      </trkpt>
      <trkpt lat="47.80574" lon="1.01116">
        <ele>133</ele>
        <time>2024-01-16T16:55:03Z</time>
      </trkpt>
      <trkpt lat="47.80514" lon="1.01089">
        <ele>133</ele>
        <time>2024-01-16T16:56:27Z</time>
      </trkpt>
      <trkpt lat="47.80444" lon="1.01082">
        <ele>134</ele>
        <time>2024-01-16T16:58:01Z</time>
      </trkpt>
      <trkpt lat="47.80408" lon="1.01084">
        <ele>134</ele>
        <time>2024-01-16T16:58:49Z</time>
      </trkpt>
      <trkpt lat="47.80344" lon="1.01049">
        <ele>135</ele>
        <time>2024-01-16T17:00:20Z</time>
      </trkpt>
      <trkpt lat="47.80277" lon="1.01011">
        <ele>133</ele>
        <time>2024-01-16T17:01:55Z</time>
      </trkpt>
      <trkpt lat="47.80236" lon="1.0099">
        <ele>130</ele>
        <time>2024-01-16T17:02:53Z</time>
      </trkpt>
      <trkpt lat="47.80268" lon="1.00855">
        <ele>131</ele>
        <time>2024-01-16T17:05:02Z</time>
      </trkpt>
      <trkpt lat="47.80304" lon="1.00779">
        <ele>132</ele>
        <time>2024-01-16T17:06:25Z</time>
      </trkpt>
      <trkpt lat="47.80348" lon="1.00685">
        <ele>128</ele>
        <time>2024-01-16T17:08:08Z</time>
      </trkpt>
      <trkpt lat="47.80417" lon="1.00527">
        <ele>122</ele>
        <time>2024-01-16T17:10:57Z</time>
      </trkpt>
      <trkpt lat="47.80441" lon="1.00501">
        <ele>119</ele>
        <time>2024-01-16T17:11:36Z</time>
      </trkpt>
      <trkpt lat="47.80488" lon="1.00493">
        <ele>118</ele>
        <time>2024-01-16T17:12:39Z</time>
      </trkpt>
      <trkpt lat="47.80523" lon="1.00463">
        <ele>114</ele>
        <time>2024-01-16T17:13:33Z</time>
      </trkpt>
      <trkpt lat="47.80558" lon="1.0039">
        <ele>109</ele>
        <time>2024-01-16T17:14:54Z</time>
      </trkpt>
      <trkpt lat="47.80601" lon="1.00363">
        <ele>113</ele>
        <time>2024-01-16T17:15:56Z</time>
      </trkpt>
      <trkpt lat="47.80638" lon="1.00367">
        <ele>116</ele>
        <time>2024-01-16T17:16:45Z</time>
      </trkpt>
      <trkpt lat="47.80715" lon="1.00356">
        <ele>119</ele>
        <time>2024-01-16T17:18:29Z</time>
      </trkpt>
      <trkpt lat="47.80737" lon="1.00339">
        <ele>121</ele>
        <time>2024-01-16T17:19:02Z</time>
      </trkpt>
      <trkpt lat="47.80747" lon="1.00307">
        <ele>122</ele>
        <time>2024-01-16T17:19:33Z</time>
      </trkpt>
      <trkpt lat="47.8073" lon="1.00159">
        <ele>126</ele>
        <time>2024-01-16T17:21:48Z</time>
      </trkpt>
      <trkpt lat="47.80708" lon="1.00143">
        <ele>125</ele>
        <time>2024-01-16T17:22:21Z</time>
      </trkpt>
      <trkpt lat="47.80757" lon="0.99999">
        <ele>121</ele>
        <time>2024-01-16T17:24:45Z</time>
      </trkpt>
      <trkpt lat="47.80826" lon="0.99885">
        <ele>119</ele>
        <time>2024-01-16T17:27:03Z</time>
      </trkpt>
      <trkpt lat="47.80861" lon="0.99956">
        <ele>124</ele>
        <time>2024-01-16T17:28:22Z</time>
      </trkpt>
      <trkpt lat="47.80871" lon="0.9997">
        <ele>125</ele>
        <time>2024-01-16T17:28:40Z</time>
      </trkpt>
      <trkpt lat="47.80901" lon="0.99909">
        <ele>123</ele>
        <time>2024-01-16T17:29:48Z</time>
      </trkpt>
      <trkpt lat="47.80893" lon="0.99896">
        <ele>122</ele>
        <time>2024-01-16T17:30:04Z</time>
      </trkpt>
      <trkpt lat="47.80914" lon="0.99817">
        <ele>116</ele>
        <time>2024-01-16T17:31:20Z</time>
      </trkpt>
      <trkpt lat="47.80921" lon="0.99814">
        <ele>116</ele>
        <time>2024-01-16T17:31:30Z</time>
      </trkpt>
      <trkpt lat="47.80925" lon="0.99791">
        <ele>114</ele>
        <time>2024-01-16T17:31:51Z</time>
      </trkpt>
      <trkpt lat="47.8094" lon="0.99781">
        <ele>114</ele>
        <time>2024-01-16T17:32:13Z</time>
      </trkpt>
      <trkpt lat="47.80953" lon="0.99754">
        <ele>112</ele>
        <time>2024-01-16T17:32:43Z</time>
      </trkpt>
      <trkpt lat="47.80956" lon="0.99724">
        <ele>111</ele>
        <time>2024-01-16T17:33:10Z</time>
      </trkpt>
      <trkpt lat="47.80946" lon="0.99695">
        <ele>109</ele>
        <time>2024-01-16T17:33:39Z</time>
      </trkpt>
      <trkpt lat="47.8093" lon="0.99675">
        <ele>106</ele>
        <time>2024-01-16T17:34:07Z</time>
      </trkpt>
      <trkpt lat="47.80906" lon="0.99667">
        <ele>104</ele>
        <time>2024-01-16T17:34:40Z</time>
      </trkpt>
      <trkpt lat="47.80883" lon="0.99659">
        <ele>103</ele>
        <time>2024-01-16T17:35:11Z</time>
      </trkpt>
      <trkpt lat="47.80787" lon="0.9956">
        <ele>92</ele>
        <time>2024-01-16T17:37:47Z</time>
      </trkpt>
      <trkpt lat="47.80798" lon="0.99543">
        <ele>93</ele>
        <time>2024-01-16T17:38:08Z</time>
      </trkpt>
      <trkpt lat="47.80824" lon="0.99568">
        <ele>95</ele>
        <time>2024-01-16T17:38:49Z</time>
      </trkpt>
      <trkpt lat="47.80835" lon="0.99564">
        <ele>96</ele>
        <time>2024-01-16T17:39:05Z</time>
      </trkpt>
      <trkpt lat="47.80877" lon="0.99522">
        <ele>99</ele>
        <time>2024-01-16T17:40:12Z</time>
      </trkpt>
      <trkpt lat="47.80892" lon="0.99516">
        <ele>101</ele>
        <time>2024-01-16T17:40:33Z</time>
      </trkpt>
      <trkpt lat="47.80895" lon="0.99502">
        <ele>101</ele>
        <time>2024-01-16T17:40:46Z</time>
      </trkpt>
      <trkpt lat="47.80894" lon="0.99476">
        <ele>100</ele>
        <time>2024-01-16T17:41:09Z</time>
      </trkpt>
      <trkpt lat="47.80893" lon="0.99457">
        <ele>99</ele>
        <time>2024-01-16T17:41:26Z</time>
      </trkpt>
      <trkpt lat="47.80915" lon="0.99391">
        <ele>99</ele>
        <time>2024-01-16T17:42:32Z</time>
      </trkpt>
      <trkpt lat="47.80968" lon="0.99442">
        <ele>105</ele>
        <time>2024-01-16T17:43:57Z</time>
      </trkpt>
      <trkpt lat="47.80981" lon="0.99461">
        <ele>107</ele>
        <time>2024-01-16T17:44:21Z</time>
      </trkpt>
      <trkpt lat="47.80995" lon="0.99453">
        <ele>108</ele>
        <time>2024-01-16T17:44:41Z</time>
      </trkpt>
      <trkpt lat="47.81011" lon="0.99458">
        <ele>109</ele>
        <time>2024-01-16T17:45:03Z</time>
      </trkpt>
      <trkpt lat="47.81052" lon="0.99491">
        <ele>113</ele>
        <time>2024-01-16T17:46:05Z</time>
      </trkpt>
      <trkpt lat="47.81078" lon="0.99499">
        <ele>115</ele>
        <time>2024-01-16T17:46:40Z</time>
      </trkpt>
      <trkpt lat="47.81098" lon="0.99515">
        <ele>117</ele>
        <time>2024-01-16T17:47:11Z</time>
      </trkpt>
      <trkpt lat="47.81187" lon="0.99574">
        <ele>123</ele>
        <time>2024-01-16T17:49:21Z</time>
      </trkpt>
      <trkpt lat="47.81277" lon="0.99625">
        <ele>128</ele>
        <time>2024-01-16T17:51:29Z</time>
      </trkpt>
      <trkpt lat="47.81363" lon="0.99697">
        <ele>131</ele>
        <time>2024-01-16T17:53:41Z</time>
      </trkpt>
      <trkpt lat="47.81448" lon="0.99764">
        <ele>131</ele>
        <time>2024-01-16T17:55:49Z</time>
      </trkpt>
      <trkpt lat="47.8148" lon="0.99788">
        <ele>134</ele>
        <time>2024-01-16T17:56:37Z</time>
      </trkpt>
      <trkpt lat="47.81477" lon="0.99848">
        <ele>134</ele>
        <time>2024-01-16T17:57:31Z</time>
      </trkpt>
      <trkpt lat="47.81471" lon="0.99884">
        <ele>133</ele>
        <time>2024-01-16T17:58:04Z</time>
      </trkpt>
      <trkpt lat="47.81463" lon="0.99924">
        <ele>132</ele>
        <time>2024-01-16T17:58:42Z</time>
      </trkpt>
      <trkpt lat="47.81456" lon="1.00019">
        <ele>125</ele>
        <time>2024-01-16T18:00:07Z</time>
      </trkpt>
      <trkpt lat="47.8145" lon="1.00064">
        <ele>123</ele>
        <time>2024-01-16T18:00:48Z</time>
      </trkpt>
      <trkpt lat="47.81436" lon="1.00078">
        <ele>123</ele>
        <time>2024-01-16T18:01:11Z</time>
      </trkpt>
      <trkpt lat="47.81412" lon="1.00094">
        <ele>123</ele>
        <time>2024-01-16T18:01:46Z</time>
      </trkpt>
      <trkpt lat="47.81367" lon="1.00143">
        <ele>127</ele>
        <time>2024-01-16T18:03:00Z</time>
      </trkpt>
      <trkpt lat="47.81312" lon="1.00244">
        <ele>134</ele>
        <time>2024-01-16T18:04:57Z</time>
      </trkpt>
      <trkpt lat="47.81251" lon="1.00352">
        <ele>134</ele>
        <time>2024-01-16T18:07:03Z</time>
      </trkpt>
      <trkpt lat="47.81218" lon="1.00453">
        <ele>132</ele>
        <time>2024-01-16T18:08:44Z</time>
      </trkpt>
      <trkpt lat="47.81182" lon="1.00604">
        <ele>129</ele>
        <time>2024-01-16T18:11:08Z</time>
      </trkpt>
      <trkpt lat="47.81186" lon="1.0069">
        <ele>127</ele>
        <time>2024-01-16T18:12:25Z</time>
      </trkpt>
      <trkpt lat="47.8118" lon="1.00735">
        <ele>128</ele>
        <time>2024-01-16T18:13:06Z</time>
      </trkpt>
      <trkpt lat="47.81157" lon="1.00774">
        <ele>129</ele>
        <time>2024-01-16T18:13:52Z</time>
      </trkpt>
      <trkpt lat="47.81116" lon="1.00817">
        <ele>129</ele>
        <time>2024-01-16T18:14:59Z</time>
      </trkpt>
      <trkpt lat="47.81085" lon="1.00866">
        <ele>130</ele>
        <time>2024-01-16T18:16:00Z</time>
      </trkpt>
      <trkpt lat="47.81024" lon="1.00976">
        <ele>132</ele>
        <time>2024-01-16T18:18:08Z</time>
      </trkpt>
      <trkpt lat="47.80984" lon="1.01082">
        <ele>134</ele>
        <time>2024-01-16T18:19:56Z</time>
      </trkpt>
      <trkpt lat="47.80952" lon="1.0116">
        <ele>135</ele>
        <time>2024-01-16T18:21:18Z</time>
      </trkpt>
      <trkpt lat="47.8093" lon="1.01263">
        <ele>136</ele>
        <time>2024-01-16T18:22:55Z</time>
      </trkpt>
      <trkpt lat="47.8092" lon="1.01369">
        <ele>137</ele>
        <time>2024-01-16T18:24:31Z</time>
      </trkpt>
      <trkpt lat="47.80906" lon="1.01549">
        <ele>135</ele>
        <time>2024-01-16T18:27:14Z</time>
      </trkpt>
      <trkpt lat="47.8085" lon="1.0169">
        <ele>133</ele>
        <time>2024-01-16T18:29:40Z</time>
      </trkpt>
      <trkpt lat="47.80885" lon="1.01784">
        <ele>131</ele>
        <time>2024-01-16T18:31:17Z</time>
      </trkpt>
      <trkpt lat="47.80887" lon="1.01809">
        <ele>131</ele>
        <time>2024-01-16T18:31:39Z</time>
      </trkpt>
      <trkpt lat="47.80883" lon="1.01841">
        <ele>131</ele>
        <time>2024-01-16T18:32:08Z</time>
      </trkpt>
      <trkpt lat="47.80877" lon="1.0187">
        <ele>131</ele>
        <time>2024-01-16T18:32:36Z</time>
      </trkpt>
      <trkpt lat="47.80869" lon="1.01947">
        <ele>131</ele>
        <time>2024-01-16T18:33:46Z</time>
      </trkpt>
      <trkpt lat="47.80856" lon="1.02019">
        <ele>131</ele>
        <time>2024-01-16T18:34:52Z</time>
      </trkpt>
      <trkpt lat="47.80838" lon="1.02085">
        <ele>132</ele>
        <time>2024-01-16T18:35:56Z</time>
      </trkpt>
      <trkpt lat="47.80829" lon="1.02106">
        <ele>132</ele>
        <time>2024-01-16T18:36:19Z</time>
      </trkpt>
      <trkpt lat="47.80814" lon="1.02121">
        <ele>131</ele>
        <time>2024-01-16T18:36:43Z</time>
      </trkpt>
      <trkpt lat="47.80774" lon="1.02117">
        <ele>130</ele>
        <time>2024-01-16T18:37:36Z</time>
      </trkpt>
      <trkpt lat="47.80781" lon="1.02277">
        <ele>132</ele>
        <time>2024-01-16T18:40:00Z</time>
      </trkpt>
      <trkpt lat="47.80786" lon="1.02408">
        <ele>133</ele>
        <time>2024-01-16T18:41:57Z</time>
      </trkpt>
      <trkpt lat="47.80709" lon="1.02474">
        <ele>133</ele>
        <time>2024-01-16T18:43:56Z</time>
      </trkpt>
      <trkpt lat="47.80608" lon="1.02556">
        <ele>134</ele>
        <time>2024-01-16T18:46:29Z</time>
      </trkpt>
      <trkpt lat="47.80605" lon="1.02557">
        <ele>133</ele>
        <time>2024-01-16T18:46:34Z</time>
      </trkpt>
      <trkpt lat="47.80582" lon="1.02579">
        <ele>133</ele>
        <time>2024-01-16T18:47:10Z</time>
      </trkpt>
      <trkpt lat="47.80525" lon="1.02592">
        <ele>132</ele>
        <time>2024-01-16T18:48:27Z</time>
      </trkpt>
      <trkpt lat="47.80443" lon="1.02615">
        <ele>131</ele>
        <time>2024-01-16T18:50:18Z</time>
      </trkpt>
      <trkpt lat="47.80422" lon="1.02621">
        <ele>131</ele>
        <time>2024-01-16T18:50:47Z</time>
      </trkpt>
      <trkpt lat="47.8042" lon="1.02613">
        <ele>131</ele>
        <time>2024-01-16T18:50:55Z</time>
      </trkpt>
      <trkpt lat="47.8034" lon="1.02647">
        <ele>131</ele>
        <time>2024-01-16T18:52:46Z</time>
      </trkpt>
      <trkpt lat="47.80353" lon="1.02693">
        <ele>130</ele>
        <time>2024-01-16T18:53:30Z</time>
      </trkpt>
      <trkpt lat="47.80353" lon="1.0271">
        <ele>129</ele>
        <time>2024-01-16T18:53:46Z</time>
      </trkpt>
      <trkpt lat="47.80377" lon="1.02817">
        <ele>124</ele>
        <time>2024-01-16T18:55:27Z</time>
      </trkpt>
      <trkpt lat="47.80387" lon="1.0281">
        <ele>124</ele>
        <time>2024-01-16T18:55:41Z</time>
      </trkpt>
      <trkpt lat="47.80443" lon="1.02983">
        <ele>117</ele>
        <time>2024-01-16T18:58:34Z</time>
      </trkpt>
      <trkpt lat="47.8045" lon="1.03">
        <ele>116</ele>
        <time>2024-01-16T18:58:51Z</time>
      </trkpt>
      <trkpt lat="47.80452" lon="1.03152">
        <ele>108</ele>
        <time>2024-01-16T19:01:08Z</time>
      </trkpt>
      <trkpt lat="47.80482" lon="1.0323">
        <ele>106</ele>
        <time>2024-01-16T19:02:28Z</time>
      </trkpt>
      <trkpt lat="47.80452" lon="1.03402">
        <ele>94</ele>
        <time>2024-01-16T19:05:08Z</time>
      </trkpt>
      <trkpt lat="47.80445" lon="1.03518">
        <ele>88</ele>
        <time>2024-01-16T19:06:52Z</time>
      </trkpt>
      <trkpt lat="47.80383" lon="1.03538">
        <ele>84</ele>
        <time>2024-01-16T19:08:17Z</time>
      </trkpt>
      <trkpt lat="47.80336" lon="1.03552">
        <ele>83</ele>
        <time>2024-01-16T19:09:21Z</time>
      </trkpt>
      <trkpt lat="47.80334" lon="1.03487">
        <ele>82</ele>
        <time>2024-01-16T19:10:19Z</time>
      </trkpt>
    </trkseg>
  </trk>
</gpx>